Time;durP1;ratioP1;P1;durP2;ratioP2;P2;SDS_P1;SDS_P2;PMS_P1;PMS_P2;Temp;Humidity;BMP_temperature;BMP_pressure;BME280_temperature;BME280_humidity;BME280_pressure;Samples;Min_cycle;Max_cycle;Signal;HPM_P1;HPM_P2
2024/02/29 00:01:29;;;;;;;34.13;16.15;;;;;;;3.31;100.00;101810.97;4960842;28;20243;-75
2024/02/29 00:03:55;;;;;;;39.58;17.02;;;;;;;3.33;100.00;101814.28;4977618;28;20046;-73
2024/02/29 00:06:20;;;;;;;39.15;15.73;;;;;;;3.34;100.00;101810.59;5010291;28;20030;-74
2024/02/29 00:08:46;;;;;;;38.83;16.77;;;;;;;3.37;100.00;101804.91;4982381;28;20034;-74
2024/02/29 00:11:12;;;;;;;41.33;17.27;;;;;;;3.37;100.00;101802.25;4993259;28;20496;-74
2024/02/29 00:13:37;;;;;;;38.28;17.40;;;;;;;3.38;100.00;101801.22;4987273;28;20597;-74
2024/02/29 00:16:03;;;;;;;37.45;16.88;;;;;;;3.37;100.00;101798.78;4961724;28;20039;-74
2024/02/29 00:18:29;;;;;;;38.30;16.52;;;;;;;3.38;100.00;101803.88;4983493;28;20026;-74
2024/02/29 00:20:55;;;;;;;41.53;16.48;;;;;;;3.38;100.00;101800.41;4964232;28;20045;-75
2024/02/29 00:23:21;;;;;;;37.03;16.58;;;;;;;3.37;100.00;101799.59;4982555;28;20251;-73
2024/02/29 00:25:46;;;;;;;39.00;15.82;;;;;;;3.40;100.00;101798.41;4998830;28;20066;-75
2024/02/29 00:28:12;;;;;;;36.60;16.55;;;;;;;3.40;100.00;101795.78;4981120;28;20033;-78
2024/02/29 00:30:37;;;;;;;40.78;16.77;;;;;;;3.40;100.00;101793.94;4983524;28;20834;-74
2024/02/29 00:33:04;;;;;;;41.35;17.48;;;;;;;3.39;100.00;101787.00;4983752;28;20041;-75
2024/02/29 00:35:31;;;;;;;;;;;;;;;3.38;100.00;101780.06;4988975;28;20037;-75
2024/02/29 00:37:57;;;;;;;40.35;17.15;;;;;;;3.37;100.00;101780.25;4966664;28;19969;-73
2024/02/29 00:40:23;;;;;;;38.40;16.40;;;;;;;3.32;100.00;101772.91;4983629;28;20030;-73
2024/02/29 00:42:50;;;;;;;38.92;16.63;;;;;;;3.33;100.00;101771.09;4982743;28;20411;-74
2024/02/29 00:45:15;;;;;;;39.75;16.40;;;;;;;3.33;100.00;101766.59;4994094;28;20042;-72
2024/02/29 00:47:41;;;;;;;37.65;17.35;;;;;;;3.34;100.00;101767.44;4997508;28;20030;-75
2024/02/29 00:50:07;;;;;;;40.88;17.58;;;;;;;3.33;100.00;101763.97;4997877;28;20157;-73
2024/02/29 00:52:33;;;;;;;39.08;17.25;;;;;;;3.28;100.00;101753.13;4982799;28;20038;-73
2024/02/29 00:54:58;;;;;;;38.70;17.27;;;;;;;3.27;100.00;101756.81;4996168;28;20523;-73
2024/02/29 00:57:24;;;;;;;39.25;18.13;;;;;;;3.25;100.00;101750.88;4983101;28;20042;-73
2024/02/29 00:59:50;;;;;;;38.95;17.48;;;;;;;3.22;100.00;101743.31;4967458;28;20030;-73
2024/02/29 01:02:15;;;;;;;39.15;17.65;;;;;;;3.19;100.00;101739.25;4982452;28;20050;-73
2024/02/29 01:04:41;;;;;;;40.22;17.52;;;;;;;3.16;100.00;101742.28;4964161;28;20447;-74
2024/02/29 01:07:07;;;;;;;42.30;17.42;;;;;;;3.17;100.00;101743.09;4979503;28;20526;-72
2024/02/29 01:09:32;;;;;;;40.53;17.42;;;;;;;3.17;100.00;101741.25;4998341;28;20041;-74
2024/02/29 01:11:58;;;;;;;40.80;17.77;;;;;;;3.18;100.00;101737.59;4965426;28;20089;-73
2024/02/29 01:14:23;;;;;;;37.53;17.08;;;;;;;3.16;100.00;101728.22;4995868;28;20650;-76
2024/02/29 01:16:49;;;;;;;40.40;16.38;;;;;;;3.15;100.00;101723.94;4995997;28;20050;-73
2024/02/29 01:19:15;;;;;;;37.40;17.10;;;;;;;3.11;100.00;101726.16;4998409;28;20512;-74
2024/02/29 01:21:41;;;;;;;39.38;17.75;;;;;;;3.08;100.00;101723.09;4977357;28;20085;-73
2024/02/29 01:24:07;;;;;;;43.17;18.40;;;;;;;3.08;100.00;101715.16;4980545;28;20572;-75
2024/02/29 01:26:33;;;;;;;35.55;17.70;;;;;;;3.03;100.00;101715.75;4999069;28;20643;-73
2024/02/29 01:28:59;;;;;;;43.25;17.52;;;;;;;2.99;100.00;101707.38;4983118;28;20153;-73
2024/02/29 01:31:25;;;;;;;41.17;17.33;;;;;;;2.95;100.00;101706.13;4984000;28;20022;-75
2024/02/29 01:33:50;;;;;;;41.40;18.15;;;;;;;2.92;100.00;101708.38;4965280;28;20220;-73
2024/02/29 01:36:16;;;;;;;40.95;17.55;;;;;;;2.88;100.00;101700.00;4997197;28;20549;-72
2024/02/29 01:38:42;;;;;;;39.50;17.23;;;;;;;2.87;100.00;101703.66;4983124;28;20045;-74
2024/02/29 01:41:08;;;;;;;40.00;17.67;;;;;;;2.85;100.00;101694.28;4995348;28;21346;-74
2024/02/29 01:43:34;;;;;;;38.03;16.48;;;;;;;2.83;100.00;101691.81;4964584;28;20046;-74
2024/02/29 01:46:10;;;;;;;39.08;18.10;;;;;;;2.80;100.00;101692.22;4980514;28;20038;-75
2024/02/29 01:48:36;;;;;;;36.47;16.67;;;;;;;2.80;100.00;101691.41;4981863;28;20042;-73
2024/02/29 01:51:03;;;;;;;45.55;18.17;;;;;;;2.78;100.00;101691.59;4980572;28;20034;-74
2024/02/29 01:53:30;;;;;;;40.70;17.77;;;;;;;2.79;100.00;101682.66;4976846;28;20121;-74
2024/02/29 01:55:56;;;;;;;37.85;17.55;;;;;;;2.76;100.00;101672.44;4977442;28;20058;-76
2024/02/29 01:58:23;;;;;;;36.75;17.33;;;;;;;2.76;100.00;101677.72;5011901;28;20641;-76
2024/02/29 02:00:48;;;;;;;36.55;17.00;;;;;;;2.73;100.00;101667.56;4967865;28;20097;-76
2024/02/29 02:03:14;;;;;;;39.22;17.65;;;;;;;2.71;100.00;101661.66;4979575;28;20042;-75
2024/02/29 02:05:39;;;;;;;38.70;17.92;;;;;;;2.71;100.00;101662.47;4966623;28;20030;-75
2024/02/29 02:08:05;;;;;;;39.72;17.80;;;;;;;2.72;100.00;101679.16;4983555;28;20826;-74
2024/02/29 02:10:31;;;;;;;39.03;17.70;;;;;;;2.74;100.00;101685.06;4981395;28;20082;-74
2024/02/29 02:12:56;;;;;;;38.47;17.20;;;;;;;2.77;100.00;101689.94;4979417;28;20693;-74
2024/02/29 02:15:22;;;;;;;40.88;18.60;;;;;;;2.75;100.00;101673.47;4982962;28;20076;-74
2024/02/29 02:17:49;;;;;;;41.03;18.05;;;;;;;2.69;100.00;101655.72;4983890;28;20148;-73
2024/02/29 02:20:18;;;;;;;37.20;17.50;;;;;;;2.68;100.00;101651.44;4964770;28;20035;-77
2024/02/29 02:22:44;;;;;;;38.15;17.10;;;;;;;2.69;100.00;101647.78;5014403;28;20042;-75
2024/02/29 02:25:10;;;;;;;37.20;18.10;;;;;;;2.71;100.00;101656.38;4982535;28;20709;-76
2024/02/29 02:27:39;;;;;;;38.20;16.42;;;;;;;2.73;100.00;101652.50;4984791;28;20030;-75
2024/02/29 02:30:11;;;;;;;41.80;17.70;;;;;;;2.71;100.00;101643.13;4995753;28;20058;-75
2024/02/29 02:32:36;;;;;;;37.85;16.98;;;;;;;2.69;100.00;101639.84;4972222;28;20045;-74
2024/02/29 02:35:06;;;;;;;36.13;16.63;;;;;;;2.69;100.00;101629.28;4975836;28;20034;-75
2024/02/29 02:37:33;;;;;;;38.10;16.73;;;;;;;2.67;100.00;101618.91;4983443;28;20120;-77
2024/02/29 02:39:59;;;;;;;;;;;;;;;2.67;100.00;101620.72;5003515;28;20106;-76
2024/02/29 02:42:25;;;;;;;34.80;16.02;;;;;;;2.66;100.00;101622.56;4995707;28;20470;-76
2024/02/29 02:44:51;;;;;;;37.80;17.00;;;;;;;2.67;100.00;101620.72;4980903;28;20125;-76
2024/02/29 02:47:17;;;;;;;36.67;15.90;;;;;;;2.65;100.00;101620.13;4995730;28;20069;-77
2024/02/29 02:49:42;;;;;;;37.58;16.95;;;;;;;2.63;100.00;101607.06;4948957;28;20038;-76
2024/02/29 02:52:09;;;;;;;35.88;17.05;;;;;;;2.62;100.00;101615.19;4965789;28;20038;-77
2024/02/29 02:54:34;;;;;;;37.72;17.75;;;;;;;2.60;100.00;101606.66;4980900;28;20038;-76
2024/02/29 02:57:00;;;;;;;36.15;16.42;;;;;;;2.60;100.00;101612.75;4977673;28;20069;-77
2024/02/29 02:59:26;;;;;;;36.53;16.83;;;;;;;2.57;100.00;101601.75;5008397;28;20038;-74
2024/02/29 03:01:52;;;;;;;34.10;15.73;;;;;;;2.57;100.00;101585.88;4982542;28;20080;-74
2024/02/29 03:04:17;;;;;;;38.58;17.45;;;;;;;2.51;100.00;101590.13;4963418;28;20026;-74
2024/02/29 03:06:43;;;;;;;37.60;17.05;;;;;;;2.47;100.00;101584.41;4992425;28;20050;-75
2024/02/29 03:09:09;;;;;;;34.35;16.60;;;;;;;2.45;100.00;101583.00;4949729;28;20041;-74
2024/02/29 03:11:34;;;;;;;38.88;16.73;;;;;;;2.38;100.00;101580.31;4981660;28;20033;-74
2024/02/29 03:14:00;;;;;;;39.60;16.75;;;;;;;2.35;100.00;101572.75;4981449;28;20046;-74
2024/02/29 03:16:27;;;;;;;37.38;16.45;;;;;;;2.31;100.00;101570.72;4981715;28;20037;-74
2024/02/29 03:18:53;;;;;;;35.00;16.50;;;;;;;2.27;100.00;101567.63;4978482;28;20041;-74
2024/02/29 03:21:18;;;;;;;36.63;16.55;;;;;;;2.23;100.00;101563.72;4980573;28;20035;-74
2024/02/29 03:23:44;;;;;;;37.13;16.38;;;;;;;2.18;100.00;101572.25;4982092;28;20498;-74
2024/02/29 03:26:11;;;;;;;36.13;17.08;;;;;;;2.12;100.00;101557.16;4986164;28;20042;-73
2024/02/29 03:28:36;;;;;;;;;;;;;;;2.10;100.00;101569.78;4980505;28;20038;-74
2024/02/29 03:31:03;;;;;;;35.53;16.23;;;;;;;2.01;100.00;101557.69;4976680;28;19918;-74
2024/02/29 03:33:28;;;;;;;37.30;16.33;;;;;;;2.00;100.00;101555.25;4964541;28;20377;-74
2024/02/29 03:35:54;;;;;;;40.15;16.08;;;;;;;1.98;100.00;101565.22;4981256;28;20805;-74
2024/02/29 03:38:19;;;;;;;39.58;16.17;;;;;;;1.91;100.00;101555.41;4993565;28;20049;-74
2024/02/29 03:40:45;;;;;;;39.50;17.17;;;;;;;1.90;100.00;101559.06;4998453;28;20050;-73
2024/02/29 03:43:10;;;;;;;39.33;17.13;;;;;;;1.88;100.00;101553.13;4979054;28;20047;-73
2024/02/29 03:45:36;;;;;;;38.38;16.88;;;;;;;1.89;100.00;101546.84;4976070;28;20038;-74
2024/02/29 03:48:02;;;;;;;37.47;17.23;;;;;;;1.85;100.00;101540.31;4978569;28;20056;-75
2024/02/29 03:50:27;;;;;;;34.10;15.30;;;;;;;1.84;100.00;101541.34;4981385;28;20034;-74
2024/02/29 03:52:53;;;;;;;36.35;17.38;;;;;;;1.82;100.00;101542.53;4993951;28;20503;-75
2024/02/29 03:55:19;;;;;;;39.63;17.13;;;;;;;1.82;100.00;101535.41;4964471;28;20045;-74
2024/02/29 03:57:44;;;;;;;41.53;17.55;;;;;;;1.80;100.00;101532.16;4978941;28;20042;-74
2024/02/29 04:00:12;;;;;;;38.97;17.55;;;;;;;1.78;100.00;101526.25;4993998;28;20034;-74
2024/02/29 04:02:38;;;;;;;36.78;16.08;;;;;;;1.76;100.00;101508.94;4978235;28;20370;-75
2024/02/29 04:05:05;;;;;;;36.10;16.50;;;;;;;1.74;100.00;101522.34;4994193;28;20089;-72
2024/02/29 04:07:31;;;;;;;39.38;15.85;;;;;;;1.74;100.00;101521.53;4980975;28;20038;-73
2024/02/29 04:09:56;;;;;;;40.33;17.33;;;;;;;1.73;100.00;101520.72;4983368;28;20034;-73
2024/02/29 04:12:22;;;;;;;35.60;15.82;;;;;;;1.73;100.00;101517.28;4983074;28;20034;-72
2024/02/29 04:14:48;;;;;;;37.92;17.20;;;;;;;1.71;100.00;101506.91;4984012;28;20423;-72
2024/02/29 04:17:13;;;;;;;34.70;16.13;;;;;;;1.69;100.00;101508.91;4997539;28;20488;-73
2024/02/29 04:19:41;;;;;;;38.13;16.38;;;;;;;1.68;100.00;101507.28;4998822;28;20049;-72
2024/02/29 04:22:07;;;;;;;35.95;16.45;;;;;;;1.67;100.00;101503.00;4994806;28;20057;-72
2024/02/29 04:24:32;;;;;;;38.15;15.05;;;;;;;1.64;100.00;101501.56;4982680;28;20190;-72
2024/02/29 04:26:58;;;;;;;35.63;16.85;;;;;;;1.65;100.00;101497.09;4963029;28;20093;-73
2024/02/29 04:29:24;;;;;;;35.20;15.38;;;;;;;1.65;100.00;101494.47;4979869;28;20774;-72
2024/02/29 04:31:49;;;;;;;35.40;15.52;;;;;;;1.63;100.00;101491.22;4997812;28;20037;-72
2024/02/29 04:34:15;;;;;;;34.13;15.35;;;;;;;1.60;100.00;101478.38;4993159;28;20034;-72
2024/02/29 04:36:40;;;;;;;37.03;15.50;;;;;;;1.57;100.00;101478.78;4965816;28;20034;-73
2024/02/29 04:39:06;;;;;;;36.70;16.25;;;;;;;1.55;100.00;101475.50;4980121;28;20046;-72
2024/02/29 04:41:31;;;;;;;33.53;15.20;;;;;;;1.52;100.00;101470.59;4980643;28;20022;-72
2024/02/29 04:43:57;;;;;;;32.90;15.93;;;;;;;1.49;100.00;101473.63;4997254;28;20038;-72
2024/02/29 04:46:23;;;;;;;36.08;15.88;;;;;;;1.49;100.00;101470.97;4980256;28;20500;-73
2024/02/29 04:48:48;;;;;;;36.15;15.65;;;;;;;1.48;100.00;101462.25;4982194;28;20046;-73
2024/02/29 04:51:14;;;;;;;36.05;15.77;;;;;;;1.48;100.00;101474.63;4979798;28;20065;-73
2024/02/29 04:53:40;;;;;;;34.45;15.13;;;;;;;1.47;100.00;101467.72;4964929;28;20069;-74
2024/02/29 04:56:06;;;;;;;36.88;16.67;;;;;;;1.47;100.00;101467.72;4982329;28;20049;-73
2024/02/29 04:58:32;;;;;;;38.78;15.70;;;;;;;1.49;100.00;101470.97;4984745;28;20057;-73
2024/02/29 05:00:58;;;;;;;36.03;15.57;;;;;;;1.46;100.00;101469.53;4985794;28;20097;-72
2024/02/29 05:03:24;;;;;;;37.17;15.57;;;;;;;1.46;100.00;101468.72;4981157;28;20397;-72
2024/02/29 05:05:50;;;;;;;30.60;14.32;;;;;;;1.46;100.00;101455.53;4984024;28;20034;-72
2024/02/29 05:08:15;;;;;;;35.05;15.45;;;;;;;1.44;100.00;101457.56;4997778;28;20034;-73
2024/02/29 05:10:41;;;;;;;34.95;15.40;;;;;;;1.43;100.00;101458.56;4989724;28;20034;-72
2024/02/29 05:13:06;;;;;;;33.92;15.82;;;;;;;1.43;100.00;101453.28;4984500;28;20069;-71
2024/02/29 05:15:33;;;;;;;34.20;14.88;;;;;;;1.40;100.00;101448.38;4984734;28;20616;-72
2024/02/29 05:17:59;;;;;;;32.53;14.18;;;;;;;1.43;100.00;101450.66;4988769;28;20077;-74
2024/02/29 05:20:27;;;;;;;35.85;16.02;;;;;;;1.46;100.00;101450.25;5017281;28;20041;-73
2024/02/29 05:22:53;;;;;;;32.45;14.00;;;;;;;1.46;100.00;101439.69;4963411;28;20049;-73
2024/02/29 05:25:22;;;;;;;34.97;15.10;;;;;;;1.48;100.00;101442.94;4982559;28;20057;-73
2024/02/29 05:27:48;;;;;;;32.85;15.07;;;;;;;1.46;100.00;101435.22;5001745;28;20045;-72
2024/02/29 05:30:14;;;;;;;36.42;16.15;;;;;;;1.47;100.00;101436.03;4979228;28;20035;-73
2024/02/29 05:32:40;;;;;;;32.33;15.85;;;;;;;1.48;100.00;101437.66;4996729;28;20042;-74
2024/02/29 05:35:08;;;;;;;33.83;15.32;;;;;;;1.49;100.00;101439.31;4978106;28;20030;-74
2024/02/29 05:37:35;;;;;;;34.45;14.85;;;;;;;1.50;100.00;101435.69;4981010;28;20400;-73
2024/02/29 05:40:01;;;;;;;32.47;14.85;;;;;;;1.47;100.00;101433.41;4984582;28;20043;-73
2024/02/29 05:42:28;;;;;;;33.13;14.60;;;;;;;1.47;100.00;101425.50;4998393;28;20027;-73
2024/02/29 05:44:54;;;;;;;31.67;14.55;;;;;;;1.48;100.00;101435.84;4984519;28;20038;-73
2024/02/29 05:47:20;;;;;;;35.00;15.63;;;;;;;1.49;100.00;101421.66;5004938;28;20124;-73
2024/02/29 05:49:46;;;;;;;;;;;;;;;1.52;100.00;101421.25;4975734;28;20041;-73
2024/02/29 05:52:12;;;;;;;33.35;14.10;;;;;;;1.51;100.00;101421.47;4981170;28;19920;-73
2024/02/29 05:54:37;;;;;;;33.42;14.15;;;;;;;1.49;100.00;101419.03;4981668;28;20042;-72
2024/02/29 05:57:03;;;;;;;31.52;14.73;;;;;;;1.51;100.00;101426.75;4992383;28;20042;-73
2024/02/29 05:59:30;;;;;;;29.00;13.93;;;;;;;1.52;100.00;101420.44;4963482;28;20038;-74
2024/02/29 06:01:56;;;;;;;30.02;14.35;;;;;;;1.53;100.00;101416.81;4980692;28;20739;-75
2024/02/29 06:04:22;;;;;;;31.23;14.73;;;;;;;1.54;100.00;101410.50;4974007;28;20089;-74
2024/02/29 06:06:47;;;;;;;34.17;16.20;;;;;;;1.55;100.00;101418.22;5009736;28;20366;-74
2024/02/29 06:09:14;;;;;;;31.83;14.63;;;;;;;1.55;100.00;101409.50;4983290;28;20038;-73
2024/02/29 06:11:43;;;;;;;32.50;14.63;;;;;;;1.56;100.00;101408.50;4975064;28;20121;-71
2024/02/29 06:14:09;;;;;;;29.45;13.93;;;;;;;1.55;100.00;101417.41;4996108;28;20088;-73
2024/02/29 06:16:35;;;;;;;30.17;14.85;;;;;;;1.58;100.00;101414.41;4985414;28;20057;-73
2024/02/29 06:19:00;;;;;;;33.25;14.35;;;;;;;1.57;100.00;101410.13;4989863;28;20077;-73
2024/02/29 06:21:26;;;;;;;28.90;13.82;;;;;;;1.56;100.00;101401.41;4991068;28;20038;-72
2024/02/29 06:23:54;;;;;;;32.78;14.43;;;;;;;1.58;100.00;101402.00;4979207;28;20041;-74
2024/02/29 06:26:19;;;;;;;33.40;15.00;;;;;;;1.60;100.00;101410.53;4981359;28;20053;-74
2024/02/29 06:28:46;;;;;;;31.13;13.93;;;;;;;1.61;100.00;101408.72;4981216;28;20038;-73
2024/02/29 06:31:12;;;;;;;31.67;14.20;;;;;;;1.63;100.00;101402.25;4974953;28;20062;-74
2024/02/29 06:33:38;;;;;;;30.55;14.07;;;;;;;1.66;100.00;101398.41;4979799;28;20062;-73
2024/02/29 06:36:04;;;;;;;30.90;14.00;;;;;;;1.67;100.00;101405.31;4997889;28;20514;-73
2024/02/29 06:38:30;;;;;;;31.27;15.05;;;;;;;1.71;100.00;101406.56;4980560;28;20030;-72
2024/02/29 06:40:55;;;;;;;34.95;14.95;;;;;;;1.73;100.00;101407.16;4993687;28;20027;-72
2024/02/29 06:43:21;;;;;;;28.55;14.10;;;;;;;1.77;100.00;101411.06;4993871;28;20901;-74
2024/02/29 06:45:49;;;;;;;29.50;12.98;;;;;;;1.80;100.00;101412.50;4996489;28;20037;-72
2024/02/29 06:48:18;;;;;;;29.38;14.23;;;;;;;1.84;100.00;101411.09;4997524;28;20046;-72
2024/02/29 06:50:45;;;;;;;30.60;13.93;;;;;;;1.90;100.00;101405.03;5011445;28;20031;-72
2024/02/29 06:53:12;;;;;;;30.02;13.60;;;;;;;1.92;100.00;101403.00;4972431;28;20475;-72
2024/02/29 06:55:37;;;;;;;29.02;13.70;;;;;;;1.98;100.00;101406.69;4998703;28;20174;-73
2024/02/29 06:58:05;;;;;;;31.40;14.85;;;;;;;2.05;100.00;101397.78;4977767;28;20030;-72
2024/02/29 07:00:32;;;;;;;27.80;13.18;;;;;;;2.11;100.00;101401.47;4979978;28;20089;-74
2024/02/29 07:02:57;;;;;;;26.95;13.13;;;;;;;2.19;100.00;101394.19;4981511;28;20153;-73
2024/02/29 07:05:23;;;;;;;32.63;14.30;;;;;;;2.28;100.00;101396.63;5009098;28;20105;-73
2024/02/29 07:07:52;;;;;;;28.60;13.77;;;;;;;2.35;100.00;101395.63;4979847;28;20145;-73
2024/02/29 07:10:19;;;;;;;26.73;13.90;;;;;;;2.42;100.00;101399.13;4992659;28;20033;-73
2024/02/29 07:12:45;;;;;;;26.45;13.73;;;;;;;2.50;100.00;101389.38;4983197;28;20050;-72
2024/02/29 07:15:11;;;;;;;23.60;12.50;;;;;;;2.59;100.00;101382.91;4990061;28;20038;-75
2024/02/29 07:17:37;;;;;;;26.42;12.88;;;;;;;2.68;100.00;101384.31;4986137;28;20050;-73
2024/02/29 07:20:04;;;;;;;27.00;12.90;;;;;;;2.78;100.00;101381.25;4978530;28;20045;-73
2024/02/29 07:22:30;;;;;;;27.00;12.90;;;;;;;2.86;100.00;101383.75;4980744;28;20046;-72
2024/02/29 07:24:56;;;;;;;27.88;13.88;;;;;;;2.96;100.00;101369.06;5009764;28;20046;-73
2024/02/29 07:27:23;;;;;;;27.20;13.45;;;;;;;3.04;100.00;101375.97;4980063;28;20093;-74
2024/02/29 07:29:48;;;;;;;29.08;13.15;;;;;;;3.11;100.00;101360.09;4991857;28;20046;-73
2024/02/29 07:32:14;;;;;;;27.10;12.90;;;;;;;3.17;100.00;101364.59;5007210;28;20038;-74
2024/02/29 07:34:41;;;;;;;24.02;11.95;;;;;;;3.23;100.00;101358.47;5008797;28;20550;-74
2024/02/29 07:37:07;;;;;;;25.80;12.73;;;;;;;3.29;100.00;101357.66;4980489;28;20112;-75
2024/02/29 07:39:32;;;;;;;24.60;11.63;;;;;;;3.35;100.00;101362.13;4962135;28;20244;-73
2024/02/29 07:41:58;;;;;;;22.15;11.63;;;;;;;3.42;100.00;101375.34;4980819;28;20391;-74
2024/02/29 07:44:25;;;;;;;24.83;12.95;;;;;;;3.51;100.00;101361.66;4980496;28;20042;-73
2024/02/29 07:46:50;;;;;;;;;;;;;;;3.57;100.00;101365.31;4982094;28;20089;-74
2024/02/29 07:49:16;;;;;;;21.85;11.55;;;;;;;3.67;100.00;101349.00;4994496;28;20382;-73
2024/02/29 07:51:41;;;;;;;22.83;12.05;;;;;;;3.76;100.00;101348.56;4976688;28;20036;-73
2024/02/29 07:54:09;;;;;;;19.52;10.38;;;;;;;3.87;100.00;101352.41;4982533;28;20040;-74
2024/02/29 07:56:40;;;;;;;21.48;10.75;;;;;;;3.95;100.00;101352.16;4981918;28;21528;-72
2024/02/29 07:59:05;;;;;;;21.65;10.75;;;;;;;4.06;100.00;101342.72;4969527;28;20030;-72
2024/02/29 08:01:31;;;;;;;22.45;11.35;;;;;;;4.13;100.00;101351.44;4981812;28;20042;-73
2024/02/29 08:03:57;;;;;;;21.55;11.23;;;;;;;4.17;100.00;101344.72;4975594;28;20073;-72
2024/02/29 08:06:22;;;;;;;21.02;11.30;;;;;;;4.22;100.00;101341.44;4979252;28;20035;-72
2024/02/29 08:08:48;;;;;;;20.42;10.45;;;;;;;4.31;100.00;101338.28;4979237;28;20038;-73
2024/02/29 08:11:13;;;;;;;19.98;10.43;;;;;;;4.40;100.00;101344.16;4994923;28;20041;-72
2024/02/29 08:13:39;;;;;;;19.27;10.60;;;;;;;4.47;100.00;101344.94;4980441;28;20089;-72
2024/02/29 08:16:05;;;;;;;21.15;11.20;;;;;;;4.55;100.00;101347.34;4980112;28;20093;-73
2024/02/29 08:18:30;;;;;;;19.77;10.02;;;;;;;4.64;100.00;101339.91;4979546;28;20042;-72
2024/02/29 08:20:56;;;;;;;19.02;10.45;;;;;;;4.73;100.00;101332.50;4978392;28;20039;-75
2024/02/29 08:23:22;;;;;;;20.10;10.90;;;;;;;4.82;100.00;101333.88;4987860;28;20034;-74
2024/02/29 08:25:47;;;;;;;19.83;10.90;;;;;;;4.88;100.00;101328.50;4978278;28;20045;-74
2024/02/29 08:28:13;;;;;;;19.63;9.43;;;;;;;4.96;100.00;101326.63;4975590;28;20109;-74
2024/02/29 08:30:38;;;;;;;18.70;10.35;;;;;;;5.04;100.00;101326.31;4979468;28;20030;-73
2024/02/29 08:33:04;;;;;;;17.65;9.65;;;;;;;5.12;100.00;101316.22;4975807;28;20412;-74
2024/02/29 08:35:30;;;;;;;19.73;10.80;;;;;;;5.19;100.00;101316.16;4976626;28;20092;-73
2024/02/29 08:37:56;;;;;;;18.85;10.52;;;;;;;5.24;100.00;101323.47;5010005;28;20047;-74
2024/02/29 08:40:21;;;;;;;16.25;9.30;;;;;;;5.30;100.00;101317.28;4998686;28;20042;-74
2024/02/29 08:42:47;;;;;;;17.88;10.40;;;;;;;5.34;100.00;101313.16;4991523;28;20045;-74
2024/02/29 08:45:13;;;;;;;17.98;9.30;;;;;;;5.39;100.00;101316.78;4984990;28;20034;-73
2024/02/29 08:47:38;;;;;;;16.50;8.82;;;;;;;5.44;100.00;101313.47;4998838;28;20121;-73
2024/02/29 08:50:05;;;;;;;18.50;9.90;;;;;;;5.45;100.00;101318.53;5016446;28;20042;-74
2024/02/29 08:52:31;;;;;;;19.65;10.40;;;;;;;5.52;100.00;101315.00;4969429;28;20040;-75
2024/02/29 08:54:57;;;;;;;19.98;10.70;;;;;;;5.60;100.00;101317.34;5014268;28;20045;-73
2024/02/29 08:57:23;;;;;;;17.50;9.40;;;;;;;5.71;100.00;101317.44;5003046;28;20026;-73
2024/02/29 08:59:48;;;;;;;18.25;9.82;;;;;;;5.79;100.00;101315.50;4988081;28;20042;-74
2024/02/29 09:02:14;;;;;;;19.00;10.05;;;;;;;5.88;100.00;101309.66;4988249;28;20435;-71
2024/02/29 09:04:40;;;;;;;17.35;9.00;;;;;;;6.00;100.00;101307.06;5002794;28;20038;-73
2024/02/29 09:07:06;;;;;;;19.70;10.13;;;;;;;6.06;100.00;101310.69;4969240;28;20031;-72
2024/02/29 09:09:31;;;;;;;20.73;10.60;;;;;;;6.22;100.00;101305.53;4969321;28;20038;-72
2024/02/29 09:11:57;;;;;;;16.73;9.13;;;;;;;6.26;100.00;101309.38;5000993;28;20073;-73
2024/02/29 09:14:23;;;;;;;17.85;9.75;;;;;;;6.41;100.00;101297.50;4985769;28;20034;-73
2024/02/29 09:16:48;;;;;;;15.13;9.13;;;;;;;6.46;100.00;101300.28;4982528;28;20066;-73
2024/02/29 09:19:15;;;;;;;16.50;8.63;;;;;;;6.53;100.00;101288.50;4984837;28;20104;-74
2024/02/29 09:21:42;;;;;;;17.17;8.18;;;;;;;6.69;100.00;101294.97;4983332;28;20038;-72
2024/02/29 09:24:08;;;;;;;15.02;8.15;;;;;;;6.82;100.00;101293.94;5002190;28;20041;-73
2024/02/29 09:26:34;;;;;;;13.50;7.93;;;;;;;6.85;100.00;101298.84;4982099;28;20037;-72
2024/02/29 09:29:00;;;;;;;11.82;6.70;;;;;;;6.93;100.00;101285.16;4978358;28;20041;-75
2024/02/29 09:31:25;;;;;;;14.13;7.07;;;;;;;7.01;100.00;101276.81;4984439;28;20049;-72
2024/02/29 09:33:53;;;;;;;12.65;7.20;;;;;;;7.15;100.00;101276.59;4983066;28;20034;-72
2024/02/29 09:36:19;;;;;;;14.20;7.00;;;;;;;7.28;100.00;101260.34;4980581;28;20038;-72
2024/02/29 09:38:45;;;;;;;13.00;7.80;;;;;;;7.36;100.00;101263.44;4980374;28;20420;-73
2024/02/29 09:41:12;;;;;;;12.88;6.95;;;;;;;7.42;100.00;101250.22;5014120;28;20093;-73
2024/02/29 09:43:39;;;;;;;11.70;6.70;;;;;;;7.49;100.00;101256.25;4979767;28;20043;-73
2024/02/29 09:46:10;;;;;;;12.80;7.18;;;;;;;7.59;100.00;101253.78;4979497;28;20026;-73
2024/02/29 09:48:38;;;;;;;13.43;7.03;;;;;;;7.67;100.00;101245.41;4982615;28;20042;-72
2024/02/29 09:51:05;;;;;;;10.95;6.22;;;;;;;7.78;100.00;101241.06;4983179;28;20715;-75
2024/02/29 09:53:34;;;;;;;10.35;6.68;;;;;;;7.82;100.00;101240.34;4982106;28;20042;-73
2024/02/29 09:56:02;;;;;;;10.68;6.05;;;;;;;7.93;100.00;101236.84;4986381;28;20385;-72
2024/02/29 09:58:29;;;;;;;12.40;6.28;;;;;;;8.01;100.00;101234.81;5000563;28;20073;-72
2024/02/29 10:00:55;;;;;;;9.02;5.53;;;;;;;8.15;100.00;101230.78;5000459;28;20040;-72
2024/02/29 10:03:21;;;;;;;8.73;5.18;;;;;;;8.25;100.00;101230.94;4985225;28;20499;-72
2024/02/29 10:05:48;;;;;;;9.98;5.72;;;;;;;8.31;100.00;101227.31;4983696;28;20076;-73
2024/02/29 10:08:14;;;;;;;11.10;6.05;;;;;;;8.31;100.00;101224.66;4968838;28;20137;-73
2024/02/29 10:10:40;;;;;;;;;;;;;;;8.35;100.00;101222.31;5001086;28;20488;-74
2024/02/29 10:13:06;;;;;;;10.10;5.13;;;;;;;8.44;100.00;101228.88;4982818;28;19921;-72
2024/02/29 10:15:33;;;;;;;9.02;5.68;;;;;;;8.52;100.00;101230.34;4980036;28;20736;-72
2024/02/29 10:18:00;;;;;;;9.50;5.05;;;;;;;8.54;100.00;101225.59;5012802;28;20420;-72
2024/02/29 10:20:26;;;;;;;9.07;5.05;;;;;;;8.64;100.00;101223.06;4983501;28;20030;-73
2024/02/29 10:22:52;;;;;;;;;;;;;;;8.78;100.00;101223.50;4984973;28;20562;-73
2024/02/29 10:25:18;;;;;;;7.45;4.53;;;;;;;8.79;100.00;101223.25;4984340;28;19918;-72
2024/02/29 10:27:43;;;;;;;9.30;5.57;;;;;;;8.80;100.00;101216.88;4979657;28;20476;-72
2024/02/29 10:30:19;;;;;;;9.73;5.68;;;;;;;8.83;100.00;101218.25;4980835;28;20037;-73
2024/02/29 10:32:45;;;;;;;9.27;5.30;;;;;;;8.85;100.00;101214.28;4978574;28;20038;-72
2024/02/29 10:35:21;;;;;;;8.73;4.90;;;;;;;8.91;100.00;101210.63;4982532;28;20034;-73
2024/02/29 10:37:49;;;;;;;9.18;5.20;;;;;;;8.97;100.00;101206.97;4962092;28;20128;-73
2024/02/29 10:40:15;;;;;;;8.45;4.78;;;;;;;9.02;100.00;101207.03;4978418;28;20122;-72
2024/02/29 10:42:42;;;;;;;9.20;5.30;;;;;;;9.09;100.00;101208.72;4975422;28;20038;-72
2024/02/29 10:45:14;;;;;;;8.38;5.30;;;;;;;9.11;100.00;101198.59;4997112;28;20405;-73
2024/02/29 10:48:00;;;;;;;7.38;5.22;;;;;;;9.21;100.00;101198.69;4964053;28;20038;-73
2024/02/29 10:50:30;;;;;;;8.32;4.35;;;;;;;9.27;100.00;101203.03;4982300;28;20719;-73
2024/02/29 10:53:34;;;;;;;6.97;4.82;;;;;;;9.37;100.00;101197.03;4998043;28;20026;-73
2024/02/29 10:56:09;;;;;;;8.13;4.85;;;;;;;9.45;100.00;101205.41;4991031;28;20097;-71
2024/02/29 10:58:39;;;;;;;7.60;4.85;;;;;;;9.51;100.00;101201.72;4977243;28;20503;-74
2024/02/29 11:01:06;;;;;;;8.98;5.30;;;;;;;9.57;100.00;101197.25;5003036;28;20029;-73
2024/02/29 11:03:32;;;;;;;8.05;4.72;;;;;;;9.62;100.00;101188.44;4981966;28;20036;-72
2024/02/29 11:05:59;;;;;;;;;;;;;;;9.67;100.00;101186.63;5011011;28;20034;-72
2024/02/29 11:08:25;;;;;;;7.03;4.30;;;;;;;9.77;100.00;101196.66;4980033;28;20379;-75
2024/02/29 11:10:54;;;;;;;7.85;4.30;;;;;;;9.80;100.00;101186.22;4981712;28;20041;-73